createdAt,value
2022-11-29T00:02:00.524Z,14.20
2022-11-29T00:05:02.741Z,14.38
2022-11-29T00:08:05.719Z,14.65
2022-11-29T00:11:08.981Z,14.82
2022-11-29T00:14:12.421Z,14.30
2022-11-29T00:17:14.653Z,13.90
2022-11-29T00:20:16.870Z,13.55
2022-11-29T00:23:19.233Z,13.10
2022-11-29T00:26:21.522Z,14.27
2022-11-29T00:29:24.047Z,12.52
2022-11-29T00:32:26.531Z,13.18
2022-11-29T00:35:28.809Z,14.00
2022-11-29T00:38:31.777Z,14.25
2022-11-29T00:41:35.158Z,13.25
2022-11-29T00:44:38.072Z,14.57
2022-11-29T00:47:41.116Z,14.10
2022-11-29T00:50:44.565Z,12.23
2022-11-29T00:53:47.317Z,15.43
2022-11-29T00:56:49.780Z,14.55
2022-11-29T00:59:52.333Z,13.18
2022-11-29T01:02:54.923Z,14.05
2022-11-29T01:05:57.247Z,13.60
2022-11-29T01:08:59.625Z,14.63
2022-11-29T01:12:02.336Z,13.68
2022-11-29T01:15:05.623Z,13.73
2022-11-29T01:18:08.161Z,14.60
2022-11-29T01:21:11.521Z,13.27
2022-11-29T01:24:14.287Z,13.65
2022-11-29T01:27:16.649Z,14.48
2022-11-29T01:30:19.089Z,12.45
2022-11-29T01:33:21.910Z,14.30
2022-11-29T01:36:24.765Z,14.55
2022-11-29T01:39:27.555Z,14.07
2022-11-29T01:42:30.071Z,14.57
2022-11-29T01:45:33.143Z,14.65
2022-11-29T01:48:36.464Z,15.15
2022-11-29T01:51:39.596Z,15.98
2022-11-29T01:54:42.921Z,15.23
2022-11-29T01:57:46.135Z,15.48
2022-11-29T02:00:48.867Z,14.77
2022-11-29T02:03:51.812Z,14.52
2022-11-29T02:06:54.734Z,14.88
2022-11-29T02:09:57.447Z,15.52
2022-11-29T02:12:59.647Z,17.73
2022-11-29T02:16:02.504Z,16.00
2022-11-29T02:19:06.323Z,14.98
2022-11-29T02:22:10.021Z,15.95
2022-11-29T02:25:12.831Z,16.80
2022-11-29T02:28:15.434Z,16.92
2022-11-29T02:31:17.956Z,16.10
2022-11-29T02:34:20.691Z,18.20
2022-11-29T02:37:23.055Z,16.85
2022-11-29T02:40:25.277Z,16.85
2022-11-29T02:43:27.869Z,16.05
2022-11-29T02:46:30.045Z,16.13
2022-11-29T02:49:33.037Z,16.17
2022-11-29T02:52:36.530Z,16.00
2022-11-29T02:55:40.192Z,15.23
2022-11-29T02:58:43.067Z,15.35
2022-11-29T03:01:45.916Z,14.25
2022-11-29T03:04:49.544Z,15.68
2022-11-29T03:07:52.257Z,14.35
2022-11-29T03:10:55.632Z,14.98
2022-11-29T03:13:58.750Z,15.82
2022-11-29T03:17:01.655Z,16.08
2022-11-29T03:20:04.375Z,16.13
2022-11-29T03:23:06.846Z,14.70
2022-11-29T03:26:09.698Z,17.05
2022-11-29T03:29:12.573Z,16.02
2022-11-29T03:32:16.233Z,15.50
2022-11-29T03:35:19.334Z,16.20
2022-11-29T03:38:22.174Z,16.88
2022-11-29T03:41:24.591Z,17.52
2022-11-29T03:44:27.168Z,15.60
2022-11-29T03:47:29.752Z,15.98
2022-11-29T03:50:32.623Z,15.10
2022-11-29T03:53:35.452Z,16.23
2022-11-29T03:56:38.095Z,15.27
2022-11-29T03:59:40.668Z,16.45
2022-11-29T04:02:43.223Z,18.05
2022-11-29T04:05:45.671Z,15.57
2022-11-29T04:08:48.445Z,16.65
2022-11-29T04:11:50.816Z,16.90
2022-11-29T04:14:53.928Z,17.45
2022-11-29T04:17:56.717Z,16.63
2022-11-29T04:20:58.832Z,16.88
2022-11-29T04:24:01.395Z,16.90
2022-11-29T04:27:04.227Z,18.70
2022-11-29T04:30:06.310Z,17.50
2022-11-29T04:33:08.879Z,16.95
2022-11-29T04:36:11.140Z,16.23
2022-11-29T04:39:13.493Z,15.90
2022-11-29T04:42:16.199Z,16.58
2022-11-29T04:45:18.463Z,16.58
2022-11-29T04:48:21.422Z,18.38
2022-11-29T04:51:24.599Z,17.80
2022-11-29T04:54:27.406Z,15.80
2022-11-29T04:57:30.711Z,15.27
2022-11-29T05:00:33.907Z,14.23
2022-11-29T05:03:36.477Z,16.27
2022-11-29T05:06:39.418Z,15.23
2022-11-29T05:09:42.184Z,15.85
2022-11-29T05:12:45.078Z,13.88
2022-11-29T05:15:47.975Z,15.32
2022-11-29T05:18:50.521Z,13.90
2022-11-29T05:21:53.374Z,15.02
2022-11-29T05:24:56.379Z,15.80
2022-11-29T05:27:59.285Z,13.98
2022-11-29T05:31:02.281Z,14.18
2022-11-29T05:34:04.934Z,13.80
2022-11-29T05:37:08.093Z,13.40
2022-11-29T05:40:10.627Z,14.00
2022-11-29T05:43:13.314Z,13.60
2022-11-29T05:46:15.938Z,15.15
2022-11-29T05:49:18.545Z,13.68
2022-11-29T05:52:21.082Z,14.27
2022-11-29T05:55:25.141Z,13.85
2022-11-29T05:58:30.545Z,13.45
2022-11-29T06:01:32.672Z,14.55
2022-11-29T06:04:35.479Z,13.25
2022-11-29T06:07:38.421Z,13.60
2022-11-29T06:10:40.965Z,14.27
2022-11-29T06:13:43.422Z,15.73
2022-11-29T06:16:46.587Z,12.85
2022-11-29T06:19:49.373Z,13.70
2022-11-29T06:22:52.107Z,14.57
2022-11-29T06:25:58.253Z,13.50
2022-11-29T06:32:05.957Z,14.45
2022-11-29T06:35:08.548Z,13.63
2022-11-29T06:38:11.247Z,13.50
2022-11-29T06:41:13.875Z,11.98
2022-11-29T06:44:16.070Z,13.45
2022-11-29T06:47:18.234Z,12.15
2022-11-29T06:50:20.489Z,13.40
2022-11-29T06:53:23.474Z,13.98
2022-11-29T06:56:25.991Z,12.55
2022-11-29T06:59:28.644Z,14.45
2022-11-29T07:02:31.543Z,12.77
2022-11-29T07:05:34.722Z,12.27
2022-11-29T07:08:37.474Z,13.25
2022-11-29T07:11:40.543Z,12.77
2022-11-29T07:14:43.968Z,13.43
2022-11-29T07:17:46.522Z,11.45
2022-11-29T07:20:49.398Z,12.55
2022-11-29T07:23:51.990Z,11.38
2022-11-29T07:26:59.390Z,11.77
2022-11-29T07:30:06.090Z,11.68
2022-11-29T07:33:08.774Z,11.65
2022-11-29T07:36:11.499Z,11.73
2022-11-29T07:39:14.126Z,11.05
2022-11-29T07:42:16.585Z,11.25
2022-11-29T07:45:19.532Z,12.73
2022-11-29T07:48:22.370Z,10.98
2022-11-29T07:51:24.724Z,10.68
2022-11-29T07:54:27.553Z,11.15
2022-11-29T07:57:30.405Z,10.23
2022-11-29T08:00:32.685Z,11.68
2022-11-29T08:03:35.683Z,9.90
2022-11-29T08:06:39.019Z,11.65
2022-11-29T08:09:41.960Z,11.15
2022-11-29T08:12:44.813Z,11.02
2022-11-29T08:15:47.385Z,11.25
2022-11-29T08:18:50.049Z,11.10
2022-11-29T08:21:52.896Z,11.00
2022-11-29T08:24:56.061Z,10.88
2022-11-29T08:27:58.978Z,12.10
2022-11-29T08:31:01.084Z,10.65
2022-11-29T08:34:04.119Z,11.38
2022-11-29T08:37:07.090Z,10.65
2022-11-29T08:40:09.637Z,10.60
2022-11-29T08:43:12.218Z,11.30
2022-11-29T08:46:18.596Z,11.05
2022-11-29T08:49:21.647Z,11.45
2022-11-29T08:52:23.849Z,11.70
2022-11-29T08:55:26.917Z,10.13
2022-11-29T08:58:29.666Z,10.77
2022-11-29T09:01:32.632Z,10.18
2022-11-29T09:04:35.188Z,11.27
2022-11-29T09:07:38.504Z,10.25
2022-11-29T09:10:41.595Z,11.38
2022-11-29T09:13:45.304Z,9.98
2022-11-29T09:16:48.558Z,9.73
2022-11-29T09:19:51.386Z,9.95
2022-11-29T09:22:53.829Z,11.73
2022-11-29T09:25:56.178Z,8.35
2022-11-29T09:28:58.787Z,9.05
2022-11-29T09:32:01.596Z,8.88
2022-11-29T09:35:04.580Z,9.07
2022-11-29T09:38:07.226Z,9.48
2022-11-29T09:41:10.078Z,9.25
2022-11-29T09:44:12.495Z,8.38
2022-11-29T09:47:14.622Z,8.88
2022-11-29T09:50:17.550Z,9.75
2022-11-29T09:53:20.328Z,8.77
2022-11-29T09:56:22.516Z,9.73
2022-11-29T09:59:25.312Z,9.13
2022-11-29T10:02:27.535Z,7.75
2022-11-29T10:05:30.206Z,8.63
2022-11-29T10:08:32.957Z,8.05
2022-11-29T10:11:36.352Z,7.95
2022-11-29T10:14:38.995Z,7.63
2022-11-29T10:17:40.915Z,8.48
2022-11-29T10:20:48.623Z,6.90
2022-11-29T10:23:52.222Z,8.98
2022-11-29T10:26:55.393Z,8.85
2022-11-29T10:29:57.819Z,9.70
2022-11-29T10:33:00.761Z,9.52
2022-11-29T10:36:03.284Z,9.27
2022-11-29T10:39:09.972Z,8.55
2022-11-29T10:42:15.404Z,7.68
2022-11-29T10:45:18.337Z,8.07
2022-11-29T10:48:20.799Z,6.88
2022-11-29T10:51:23.018Z,7.78
2022-11-29T10:54:25.842Z,8.48
2022-11-29T10:57:29.700Z,6.97
2022-11-29T11:00:33.585Z,7.63
2022-11-29T11:03:36.622Z,7.65
2022-11-29T11:06:39.762Z,7.55
2022-11-29T11:09:42.505Z,8.98
2022-11-29T11:12:44.954Z,8.43
2022-11-29T11:15:47.486Z,7.88
2022-11-29T11:18:50.405Z,9.18
2022-11-29T11:21:53.623Z,8.90
2022-11-29T11:24:56.458Z,7.85
2022-11-29T11:27:59.219Z,10.75
2022-11-29T11:31:02.631Z,9.55
2022-11-29T11:34:05.538Z,8.38
2022-11-29T11:37:08.300Z,9.27
2022-11-29T11:40:10.961Z,9.07
2022-11-29T11:43:13.245Z,8.07
2022-11-29T11:46:18.135Z,8.05
2022-11-29T11:49:20.772Z,8.98
2022-11-29T11:52:23.701Z,9.35
2022-11-29T11:55:26.183Z,9.02
2022-11-29T11:58:28.761Z,8.63
2022-11-29T12:01:31.376Z,8.15
2022-11-29T12:04:33.555Z,9.38
2022-11-29T12:08:06.211Z,8.10
2022-11-29T12:11:00.574Z,9.15
2022-11-29T12:14:06.481Z,9.63
2022-11-29T12:17:09.119Z,8.48
2022-11-29T12:20:12.169Z,9.25
2022-11-29T12:23:15.451Z,8.20
2022-11-29T12:26:48.498Z,8.40
2022-11-29T12:29:40.938Z,8.93
2022-11-29T12:32:43.559Z,10.00
2022-11-29T12:35:46.232Z,9.20
2022-11-29T12:38:48.516Z,8.80
2022-11-29T12:41:53.941Z,8.75
2022-11-29T12:44:56.927Z,9.25
2022-11-29T12:47:59.825Z,9.88
2022-11-29T12:51:03.039Z,8.13
2022-11-29T12:54:05.889Z,9.07
2022-11-29T12:57:08.532Z,9.77
2022-11-29T13:00:11.293Z,9.18
2022-11-29T13:03:14.760Z,9.30
2022-11-29T13:06:17.191Z,8.55
2022-11-29T13:09:20.115Z,8.30
2022-11-29T13:12:22.766Z,8.30
2022-11-29T13:15:25.113Z,9.70
2022-11-29T13:18:28.352Z,10.63
2022-11-29T13:21:30.839Z,7.75
2022-11-29T13:24:36.058Z,8.70
2022-11-29T13:27:45.956Z,8.80
2022-11-29T13:30:48.773Z,9.60
2022-11-29T13:33:51.393Z,9.25
2022-11-29T13:36:53.968Z,8.57
2022-11-29T13:39:56.586Z,8.38
2022-11-29T13:42:58.700Z,9.48
2022-11-29T13:46:00.853Z,8.77
2022-11-29T13:49:03.835Z,8.63
2022-11-29T13:52:06.922Z,8.27
2022-11-29T13:55:09.369Z,8.40
2022-11-29T13:58:17.390Z,7.25
2022-11-29T14:01:20.412Z,8.32
2022-11-29T14:04:22.571Z,9.23
2022-11-29T14:07:25.141Z,9.65
2022-11-29T14:10:29.282Z,6.97
2022-11-29T14:13:31.465Z,9.02
2022-11-29T14:16:34.511Z,10.00
2022-11-29T14:19:37.419Z,7.90
2022-11-29T14:22:40.332Z,9.20
2022-11-29T14:25:52.004Z,6.78
2022-11-29T14:28:55.470Z,7.70
2022-11-29T14:31:58.591Z,7.07
2022-11-29T14:35:01.419Z,7.22
2022-11-29T14:38:03.664Z,7.75
2022-11-29T14:41:06.676Z,7.00
2022-11-29T14:44:09.506Z,7.25
2022-11-29T14:47:12.573Z,7.00
2022-11-29T14:50:16.313Z,6.88
2022-11-29T14:53:19.011Z,7.75
2022-11-29T14:56:21.802Z,5.72
2022-11-29T14:59:24.464Z,7.57
2022-11-29T15:02:26.985Z,7.47
2022-11-29T15:05:29.145Z,7.07
2022-11-29T15:08:32.041Z,6.28
2022-11-29T15:11:34.690Z,5.63
2022-11-29T15:14:37.473Z,7.15
2022-11-29T15:17:40.183Z,7.55
2022-11-29T15:20:42.322Z,6.85
2022-11-29T15:23:44.951Z,6.88
2022-11-29T15:26:47.080Z,6.95
2022-11-29T15:29:49.575Z,6.75
2022-11-29T15:32:52.347Z,7.50
2022-11-29T15:35:55.210Z,6.53
2022-11-29T15:38:57.667Z,6.75
2022-11-29T15:41:59.927Z,6.82
2022-11-29T15:45:02.159Z,5.18
2022-11-29T15:48:04.863Z,5.15
2022-11-29T15:51:08.055Z,5.65
2022-11-29T15:54:13.036Z,6.00
2022-11-29T15:57:15.715Z,6.45
2022-11-29T16:00:18.225Z,5.95
2022-11-29T16:03:21.942Z,6.25
2022-11-29T16:06:24.888Z,5.72
2022-11-29T16:09:27.358Z,5.25
2022-11-29T16:12:30.490Z,6.75
2022-11-29T16:15:33.424Z,6.10
2022-11-29T16:18:36.999Z,5.50
2022-11-29T16:21:39.952Z,5.97
2022-11-29T16:24:43.347Z,6.07
2022-11-29T16:27:46.389Z,5.43
2022-11-29T16:30:49.024Z,5.03
2022-11-29T16:33:51.781Z,6.40
2022-11-29T16:36:59.507Z,5.35
2022-11-29T16:40:03.712Z,5.50
2022-11-29T16:43:06.530Z,6.07
2022-11-29T16:46:09.205Z,5.90
2022-11-29T16:49:11.390Z,6.18
2022-11-29T16:52:14.002Z,6.03
2022-11-29T16:55:16.625Z,6.57
2022-11-29T16:58:18.872Z,6.40
2022-11-29T17:01:22.029Z,4.72
2022-11-29T17:04:28.070Z,5.65
2022-11-29T17:07:30.949Z,6.35
2022-11-29T17:10:33.353Z,6.32
2022-11-29T17:13:36.003Z,7.28
2022-11-29T17:16:38.560Z,6.63
2022-11-29T17:19:41.701Z,5.55
2022-11-29T17:22:44.480Z,7.50
2022-11-29T17:25:47.412Z,7.25
2022-11-29T17:28:50.645Z,6.57
2022-11-29T17:31:53.793Z,7.18
2022-11-29T17:34:56.388Z,6.80
2022-11-29T17:37:59.179Z,6.75
2022-11-29T17:41:01.848Z,6.93
2022-11-29T17:44:04.453Z,6.07
2022-11-29T17:47:07.763Z,5.18
2022-11-29T17:50:10.182Z,7.20
2022-11-29T17:53:12.842Z,6.25
2022-11-29T17:56:16.517Z,6.45
2022-11-29T17:59:19.828Z,7.00
2022-11-29T18:02:23.268Z,6.15
2022-11-29T18:05:27.915Z,6.70
2022-11-29T18:08:34.553Z,6.45
2022-11-29T18:11:46.458Z,5.30
2022-11-29T18:14:49.113Z,7.80
2022-11-29T18:17:51.334Z,6.15
2022-11-29T18:20:54.271Z,6.07
2022-11-29T18:23:57.013Z,6.57
2022-11-29T18:27:00.468Z,6.85
2022-11-29T18:30:03.371Z,6.95
2022-11-29T18:33:06.240Z,6.03
2022-11-29T18:36:08.996Z,7.38
2022-11-29T18:39:11.625Z,6.75
2022-11-29T18:42:14.281Z,7.43
2022-11-29T18:45:17.248Z,5.53
2022-11-29T18:48:19.650Z,6.40
2022-11-29T18:51:21.810Z,7.43
2022-11-29T18:54:24.492Z,7.32
2022-11-29T18:57:27.171Z,7.45
2022-11-29T19:00:30.228Z,6.93
2022-11-29T19:03:33.635Z,7.50
2022-11-29T19:06:39.698Z,6.82
2022-11-29T19:09:43.019Z,6.28
2022-11-29T19:12:45.778Z,6.72
2022-11-29T19:15:48.029Z,6.00
2022-11-29T19:18:51.079Z,6.75
2022-11-29T19:21:53.862Z,5.95
2022-11-29T19:24:56.648Z,7.00
2022-11-29T19:27:59.596Z,8.20
2022-11-29T19:31:02.229Z,6.88
2022-11-29T19:34:05.436Z,6.80
2022-11-29T19:37:08.281Z,6.10
2022-11-29T19:40:10.853Z,8.05
2022-11-29T19:43:13.935Z,7.80
2022-11-29T19:46:17.865Z,6.18
2022-11-29T19:49:21.345Z,6.53
2022-11-29T19:52:24.756Z,6.72
2022-11-29T19:55:28.058Z,6.68
2022-11-29T19:58:30.452Z,6.18
2022-11-29T20:01:39.686Z,6.60
2022-11-29T20:04:43.700Z,7.28
2022-11-29T20:07:46.276Z,6.95
2022-11-29T20:10:49.137Z,8.43
2022-11-29T20:13:51.587Z,6.72
2022-11-29T20:16:54.361Z,6.38
2022-11-29T20:19:56.959Z,5.50
2022-11-29T20:22:59.581Z,6.22
2022-11-29T20:26:02.247Z,5.75
2022-11-29T20:29:04.956Z,6.47
2022-11-29T20:32:07.560Z,7.15
2022-11-29T20:35:10.002Z,6.40
2022-11-29T20:38:12.675Z,8.02
2022-11-29T20:41:15.483Z,6.90
2022-11-29T20:44:17.775Z,5.78
2022-11-29T20:47:20.349Z,6.60
2022-11-29T20:50:23.984Z,6.13
2022-11-29T20:53:26.793Z,5.97
2022-11-29T20:56:29.418Z,5.90
2022-11-29T20:59:31.567Z,6.85
2022-11-29T21:02:33.773Z,6.28
2022-11-29T21:05:36.771Z,5.53
2022-11-29T21:08:39.530Z,5.47
2022-11-29T21:11:42.108Z,4.60
2022-11-29T21:14:45.389Z,5.03
2022-11-29T21:17:48.059Z,5.38
2022-11-29T21:20:50.200Z,6.63
2022-11-29T21:23:53.214Z,5.60
2022-11-29T21:26:56.613Z,4.95
2022-11-29T21:29:59.717Z,5.13
2022-11-29T21:33:02.910Z,5.25
2022-11-29T21:36:05.989Z,6.22
2022-11-29T21:39:09.120Z,5.65
2022-11-29T21:42:12.288Z,5.80
2022-11-29T21:45:16.147Z,5.47
2022-11-29T21:48:18.837Z,5.85
2022-11-29T21:51:21.831Z,5.22
2022-11-29T21:54:24.183Z,6.13
2022-11-29T21:57:27.097Z,4.90
2022-11-29T22:00:35.936Z,6.03
2022-11-29T22:03:39.638Z,5.53
2022-11-29T22:06:42.683Z,5.78
2022-11-29T22:09:45.491Z,4.82
2022-11-29T22:12:52.239Z,5.85
2022-11-29T22:15:55.386Z,6.03
2022-11-29T22:18:58.399Z,5.10
2022-11-29T22:22:01.742Z,5.78
2022-11-29T22:25:04.284Z,5.20
2022-11-29T22:28:06.445Z,4.70
2022-11-29T22:31:09.457Z,5.50
2022-11-29T22:34:12.312Z,5.20
2022-11-29T22:37:14.910Z,6.03
2022-11-29T22:40:17.154Z,5.95
2022-11-29T22:43:19.475Z,6.28
2022-11-29T22:46:22.150Z,5.15
2022-11-29T22:49:24.815Z,5.85
2022-11-29T22:52:27.257Z,5.53
2022-11-29T22:55:30.355Z,5.93
2022-11-29T22:58:33.002Z,5.75
2022-11-29T23:01:35.694Z,5.47
2022-11-29T23:04:38.213Z,4.93
2022-11-29T23:07:40.832Z,5.25
2022-11-29T23:10:43.699Z,5.88
2022-11-29T23:13:46.481Z,5.50
2022-11-29T23:16:49.463Z,5.18
2022-11-29T23:19:52.491Z,5.10
2022-11-29T23:22:55.450Z,6.13
2022-11-29T23:25:58.071Z,4.80
2022-11-29T23:29:00.589Z,4.75
2022-11-29T23:32:03.219Z,5.88
2022-11-29T23:35:05.778Z,5.43
2022-11-29T23:38:08.574Z,5.22
2022-11-29T23:41:11.674Z,6.10
2022-11-29T23:44:14.338Z,5.90
2022-11-29T23:47:16.946Z,5.35
2022-11-29T23:50:20.006Z,5.43
2022-11-29T23:53:22.938Z,5.55
2022-11-29T23:56:25.486Z,5.28
2022-11-29T23:59:28.047Z,5.93
